sensor_id;sensor_type;location;lat;lon;timestamp;pressure;altitude;pressure_sealevel;temperature;humidity
78206;BME280;67480;48.920;12.880;2024-01-16T00:00:31;96033.31;;;-0.05;71.61
78206;BME280;67480;48.920;12.880;2024-01-16T00:02:56;96030.94;;;-0.06;71.33
78206;BME280;67480;48.920;12.880;2024-01-16T00:05:21;96031.72;;;-0.06;71.55
78206;BME280;67480;48.920;12.880;2024-01-16T00:07:46;96035.56;;;-0.02;71.63
78206;BME280;67480;48.920;12.880;2024-01-16T00:10:12;96049.22;;;-0.01;71.25
78206;BME280;67480;48.920;12.880;2024-01-16T00:12:37;96044.25;;;-0.03;71.20
78206;BME280;67480;48.920;12.880;2024-01-16T00:15:03;96046.03;;;-0.03;71.53
78206;BME280;67480;48.920;12.880;2024-01-16T00:17:28;96048.34;;;-0.08;71.32
78206;BME280;67480;48.920;12.880;2024-01-16T00:19:53;96055.88;;;-0.07;71.51
78206;BME280;67480;48.920;12.880;2024-01-16T00:22:19;96053.50;;;-0.08;71.56
78206;BME280;67480;48.920;12.880;2024-01-16T00:24:44;96062.81;;;-0.07;71.58
78206;BME280;67480;48.920;12.880;2024-01-16T00:27:09;96067.59;;;-0.04;71.06
78206;BME280;67480;48.920;12.880;2024-01-16T00:29:35;96067.00;;;-0.06;71.15
78206;BME280;67480;48.920;12.880;2024-01-16T00:32:00;96070.19;;;-0.04;71.05
78206;BME280;67480;48.920;12.880;2024-01-16T00:34:25;96069.72;;;-0.08;71.09
78206;BME280;67480;48.920;12.880;2024-01-16T00:36:51;96072.16;;;-0.06;71.29
78206;BME280;67480;48.920;12.880;2024-01-16T00:39:16;96072.16;;;-0.06;71.61
78206;BME280;67480;48.920;12.880;2024-01-16T00:41:41;96069.56;;;-0.06;71.24
78206;BME280;67480;48.920;12.880;2024-01-16T00:44:06;96078.88;;;-0.05;71.00
78206;BME280;67480;48.920;12.880;2024-01-16T00:46:33;96070.53;;;-0.07;70.66
78206;BME280;67480;48.920;12.880;2024-01-16T00:48:58;96079.06;;;-0.07;71.06
78206;BME280;67480;48.920;12.880;2024-01-16T00:51:23;96086.28;;;-0.02;70.94
78206;BME280;67480;48.920;12.880;2024-01-16T00:53:49;96083.59;;;-0.09;70.97
78206;BME280;67480;48.920;12.880;2024-01-16T00:56:14;96090.69;;;-0.11;71.04
78206;BME280;67480;48.920;12.880;2024-01-16T00:58:39;96099.06;;;-0.09;71.01
78206;BME280;67480;48.920;12.880;2024-01-16T01:01:05;96103.91;;;-0.14;70.57
78206;BME280;67480;48.920;12.880;2024-01-16T01:03:30;96096.97;;;-0.13;70.96
78206;BME280;67480;48.920;12.880;2024-01-16T01:05:55;96099.22;;;-0.10;70.89
78206;BME280;67480;48.920;12.880;2024-01-16T01:08:21;96098.56;;;-0.12;70.92
78206;BME280;67480;48.920;12.880;2024-01-16T01:10:46;96102.41;;;-0.08;71.05
78206;BME280;67480;48.920;12.880;2024-01-16T01:13:12;96109.50;;;-0.10;71.20
78206;BME280;67480;48.920;12.880;2024-01-16T01:15:37;96111.38;;;-0.04;70.79
78206;BME280;67480;48.920;12.880;2024-01-16T01:18:03;96121.88;;;-0.06;70.84
78206;BME280;67480;48.920;12.880;2024-01-16T01:20:29;96117.53;;;-0.05;70.47
78206;BME280;67480;48.920;12.880;2024-01-16T01:22:54;96123.03;;;-0.08;70.72
78206;BME280;67480;48.920;12.880;2024-01-16T01:25:19;96123.66;;;-0.06;70.72
78206;BME280;67480;48.920;12.880;2024-01-16T01:27:45;96122.03;;;-0.07;70.63
78206;BME280;67480;48.920;12.880;2024-01-16T01:30:11;96126.56;;;-0.09;70.47
78206;BME280;67480;48.920;12.880;2024-01-16T01:32:37;96125.59;;;-0.08;70.52
78206;BME280;67480;48.920;12.880;2024-01-16T01:35:03;96132.34;;;-0.07;70.15
78206;BME280;67480;48.920;12.880;2024-01-16T01:37:29;96130.75;;;-0.08;70.14
78206;BME280;67480;48.920;12.880;2024-01-16T01:39:54;96130.41;;;-0.05;69.83
78206;BME280;67480;48.920;12.880;2024-01-16T01:42:20;96137.78;;;-0.02;70.31
78206;BME280;67480;48.920;12.880;2024-01-16T01:44:45;96138.13;;;-0.05;70.20
78206;BME280;67480;48.920;12.880;2024-01-16T01:47:11;96128.63;;;-0.05;69.90
78206;BME280;67480;48.920;12.880;2024-01-16T01:49:37;96132.34;;;-0.07;69.99
78206;BME280;67480;48.920;12.880;2024-01-16T01:52:03;96133.97;;;-0.06;70.07
78206;BME280;67480;48.920;12.880;2024-01-16T01:54:31;96143.09;;;-0.04;69.82
78206;BME280;67480;48.920;12.880;2024-01-16T01:56:58;96146.66;;;-0.05;70.16
78206;BME280;67480;48.920;12.880;2024-01-16T01:59:24;96157.75;;;-0.04;69.80
78206;BME280;67480;48.920;12.880;2024-01-16T02:01:50;96155.81;;;-0.02;70.03
78206;BME280;67480;48.920;12.880;2024-01-16T02:04:19;96155.97;;;-0.04;69.90
78206;BME280;67480;48.920;12.880;2024-01-16T02:06:44;96159.38;;;-0.03;70.19
78206;BME280;67480;48.920;12.880;2024-01-16T02:09:10;96160.53;;;-0.06;69.76
78206;BME280;67480;48.920;12.880;2024-01-16T02:11:38;96163.25;;;-0.07;70.18
78206;BME280;67480;48.920;12.880;2024-01-16T02:14:04;96166.13;;;-0.02;69.86
78206;BME280;67480;48.920;12.880;2024-01-16T02:16:38;96169.69;;;-0.03;69.56
78206;BME280;67480;48.920;12.880;2024-01-16T02:19:04;96168.06;;;-0.04;69.55
78206;BME280;67480;48.920;12.880;2024-01-16T02:21:36;96164.88;;;-0.06;69.40
78206;BME280;67480;48.920;12.880;2024-01-16T02:24:02;96170.81;;;-0.06;69.48
78206;BME280;67480;48.920;12.880;2024-01-16T02:26:28;96178.38;;;-0.04;69.81
78206;BME280;67480;48.920;12.880;2024-01-16T02:28:55;96177.75;;;-0.06;69.71
78206;BME280;67480;48.920;12.880;2024-01-16T02:31:20;96179.34;;;-0.05;69.38
78206;BME280;67480;48.920;12.880;2024-01-16T02:33:46;96180.63;;;-0.09;69.63
78206;BME280;67480;48.920;12.880;2024-01-16T02:36:11;96174.69;;;-0.10;69.79
78206;BME280;67480;48.920;12.880;2024-01-16T02:38:36;96183.41;;;-0.11;69.96
78206;BME280;67480;48.920;12.880;2024-01-16T02:41:03;96179.69;;;-0.08;69.67
78206;BME280;67480;48.920;12.880;2024-01-16T02:43:29;96185.47;;;-0.06;69.52
78206;BME280;67480;48.920;12.880;2024-01-16T02:45:54;96189.81;;;-0.07;69.45
78206;BME280;67480;48.920;12.880;2024-01-16T02:48:19;96180.84;;;-0.11;69.46
78206;BME280;67480;48.920;12.880;2024-01-16T02:50:45;96195.16;;;-0.08;69.73
78206;BME280;67480;48.920;12.880;2024-01-16T02:53:11;96197.06;;;-0.10;69.46
78206;BME280;67480;48.920;12.880;2024-01-16T02:55:36;96201.88;;;-0.07;69.36
78206;BME280;67480;48.920;12.880;2024-01-16T02:58:02;96211.25;;;-0.06;69.56
78206;BME280;67480;48.920;12.880;2024-01-16T03:00:28;96202.53;;;-0.05;69.54
78206;BME280;67480;48.920;12.880;2024-01-16T03:02:53;96215.22;;;-0.04;69.51
78206;BME280;67480;48.920;12.880;2024-01-16T03:05:19;96212.84;;;-0.05;69.33
78206;BME280;67480;48.920;12.880;2024-01-16T03:07:44;96210.41;;;-0.07;69.29
78206;BME280;67480;48.920;12.880;2024-01-16T03:10:10;96211.25;;;-0.06;69.33
78206;BME280;67480;48.920;12.880;2024-01-16T03:12:36;96209.31;;;-0.12;69.50
78206;BME280;67480;48.920;12.880;2024-01-16T03:15:02;96211.56;;;-0.09;69.62
78206;BME280;67480;48.920;12.880;2024-01-16T03:17:27;96210.59;;;-0.08;69.43
78206;BME280;67480;48.920;12.880;2024-01-16T03:19:53;96208.81;;;-0.08;69.67
78206;BME280;67480;48.920;12.880;2024-01-16T03:22:18;96215.91;;;-0.10;69.29
78206;BME280;67480;48.920;12.880;2024-01-16T03:24:43;96215.75;;;-0.08;69.21
78206;BME280;67480;48.920;12.880;2024-01-16T03:27:09;96221.84;;;-0.09;69.18
78206;BME280;67480;48.920;12.880;2024-01-16T03:29:34;96227.00;;;-0.09;69.49
78206;BME280;67480;48.920;12.880;2024-01-16T03:32:00;96234.41;;;-0.06;69.41
78206;BME280;67480;48.920;12.880;2024-01-16T03:34:26;96219.91;;;-0.07;69.28
78206;BME280;67480;48.920;12.880;2024-01-16T03:36:52;96232.78;;;-0.07;69.46
78206;BME280;67480;48.920;12.880;2024-01-16T03:39:17;96226.69;;;-0.06;69.38
78206;BME280;67480;48.920;12.880;2024-01-16T03:41:43;96235.03;;;-0.04;68.95
78206;BME280;67480;48.920;12.880;2024-01-16T03:44:08;96246.31;;;-0.05;68.97
78206;BME280;67480;48.920;12.880;2024-01-16T03:46:34;96244.72;;;-0.06;69.15
78206;BME280;67480;48.920;12.880;2024-01-16T03:48:59;96237.78;;;-0.06;69.26
78206;BME280;67480;48.920;12.880;2024-01-16T03:51:25;96240.53;;;-0.07;69.08
78206;BME280;67480;48.920;12.880;2024-01-16T03:53:50;96248.91;;;-0.05;69.35
78206;BME280;67480;48.920;12.880;2024-01-16T03:56:16;96243.75;;;-0.05;69.32
78206;BME280;67480;48.920;12.880;2024-01-16T03:58:41;96248.09;;;-0.06;69.17
78206;BME280;67480;48.920;12.880;2024-01-16T04:01:07;96249.88;;;-0.06;68.77
78206;BME280;67480;48.920;12.880;2024-01-16T04:03:32;96254.38;;;-0.08;69.11
78206;BME280;67480;48.920;12.880;2024-01-16T04:05:57;96254.38;;;-0.08;68.68
78206;BME280;67480;48.920;12.880;2024-01-16T04:08:23;96257.13;;;-0.10;69.09
78206;BME280;67480;48.920;12.880;2024-01-16T04:10:48;96259.53;;;-0.08;68.94
78206;BME280;67480;48.920;12.880;2024-01-16T04:13:13;96265.63;;;-0.09;69.20
78206;BME280;67480;48.920;12.880;2024-01-16T04:15:39;96275.00;;;-0.08;68.99
78206;BME280;67480;48.920;12.880;2024-01-16T04:18:04;96260.34;;;-0.08;68.77
78206;BME280;67480;48.920;12.880;2024-01-16T04:20:30;96262.91;;;-0.08;68.89
78206;BME280;67480;48.920;12.880;2024-01-16T04:22:56;96260.69;;;-0.11;68.73
78206;BME280;67480;48.920;12.880;2024-01-16T04:25:21;96261.13;;;-0.07;68.75
78206;BME280;67480;48.920;12.880;2024-01-16T04:27:46;96260.50;;;-0.09;68.37
78206;BME280;67480;48.920;12.880;2024-01-16T04:30:12;96260.69;;;-0.11;68.68
78206;BME280;67480;48.920;12.880;2024-01-16T04:32:37;96250.38;;;-0.11;68.88
78206;BME280;67480;48.920;12.880;2024-01-16T04:35:03;96256.31;;;-0.10;68.73
78206;BME280;67480;48.920;12.880;2024-01-16T04:37:29;96262.13;;;-0.08;68.88
78206;BME280;67480;48.920;12.880;2024-01-16T04:39:54;96269.84;;;-0.08;68.29
78206;BME280;67480;48.920;12.880;2024-01-16T04:42:19;96258.75;;;-0.09;68.72
78206;BME280;67480;48.920;12.880;2024-01-16T04:44:45;96259.88;;;-0.11;68.16
78206;BME280;67480;48.920;12.880;2024-01-16T04:47:10;96266.63;;;-0.10;68.62
78206;BME280;67480;48.920;12.880;2024-01-16T04:49:36;96273.69;;;-0.12;68.61
78206;BME280;67480;48.920;12.880;2024-01-16T04:52:02;96275.31;;;-0.11;68.84
78206;BME280;67480;48.920;12.880;2024-01-16T04:54:28;96268.22;;;-0.09;68.36
78206;BME280;67480;48.920;12.880;2024-01-16T04:56:53;96282.06;;;-0.10;68.49
78206;BME280;67480;48.920;12.880;2024-01-16T04:59:19;96280.47;;;-0.11;68.38
78206;BME280;67480;48.920;12.880;2024-01-16T05:01:44;96280.47;;;-0.11;68.23
78206;BME280;67480;48.920;12.880;2024-01-16T05:04:10;96281.09;;;-0.09;68.49
78206;BME280;67480;48.920;12.880;2024-01-16T05:06:35;96279.69;;;-0.12;68.23
78206;BME280;67480;48.920;12.880;2024-01-16T05:09:00;96273.88;;;-0.14;68.04
78206;BME280;67480;48.920;12.880;2024-01-16T05:11:26;96273.69;;;-0.12;68.47
78206;BME280;67480;48.920;12.880;2024-01-16T05:13:51;96272.13;;;-0.13;68.25
78206;BME280;67480;48.920;12.880;2024-01-16T05:16:23;96269.69;;;-0.15;68.51
78206;BME280;67480;48.920;12.880;2024-01-16T05:18:48;96270.19;;;-0.11;68.42
78206;BME280;67480;48.920;12.880;2024-01-16T05:21:14;96273.56;;;-0.11;67.92
78206;BME280;67480;48.920;12.880;2024-01-16T05:23:39;96272.56;;;-0.10;68.14
78206;BME280;67480;48.920;12.880;2024-01-16T05:26:04;96271.13;;;-0.12;68.43
78206;BME280;67480;48.920;12.880;2024-01-16T05:28:30;96269.19;;;-0.10;68.33
78206;BME280;67480;48.920;12.880;2024-01-16T05:30:55;96277.09;;;-0.12;68.03
78206;BME280;67480;48.920;12.880;2024-01-16T05:33:20;96277.91;;;-0.11;68.22
78206;BME280;67480;48.920;12.880;2024-01-16T05:35:46;96274.03;;;-0.15;67.92
78206;BME280;67480;48.920;12.880;2024-01-16T05:38:11;96269.69;;;-0.15;67.87
78206;BME280;67480;48.920;12.880;2024-01-16T05:40:37;96280.19;;;-0.16;67.99
78206;BME280;67480;48.920;12.880;2024-01-16T05:43:03;96273.59;;;-0.19;67.82
78206;BME280;67480;48.920;12.880;2024-01-16T05:45:28;96272.78;;;-0.20;67.94
78206;BME280;67480;48.920;12.880;2024-01-16T05:47:53;96272.78;;;-0.20;67.95
78206;BME280;67480;48.920;12.880;2024-01-16T05:50:18;96284.34;;;-0.15;67.93
78206;BME280;67480;48.920;12.880;2024-01-16T05:52:44;96286.91;;;-0.15;67.86
78206;BME280;67480;48.920;12.880;2024-01-16T05:55:09;96284.69;;;-0.19;67.66
78206;BME280;67480;48.920;12.880;2024-01-16T05:57:36;96294.31;;;-0.12;68.15
78206;BME280;67480;48.920;12.880;2024-01-16T06:00:03;96292.06;;;-0.15;67.65
78206;BME280;67480;48.920;12.880;2024-01-16T06:02:30;96303.03;;;-0.13;68.06
78206;BME280;67480;48.920;12.880;2024-01-16T06:04:55;96298.84;;;-0.14;68.16
78206;BME280;67480;48.920;12.880;2024-01-16T06:07:21;96303.34;;;-0.16;67.91
78206;BME280;67480;48.920;12.880;2024-01-16T06:09:46;96312.53;;;-0.14;68.04
78206;BME280;67480;48.920;12.880;2024-01-16T06:12:11;96312.84;;;-0.17;67.84
78206;BME280;67480;48.920;12.880;2024-01-16T06:14:37;96317.22;;;-0.18;68.09
78206;BME280;67480;48.920;12.880;2024-01-16T06:17:03;96321.19;;;-0.15;68.20
78206;BME280;67480;48.920;12.880;2024-01-16T06:19:30;96316.03;;;-0.15;67.85
78206;BME280;67480;48.920;12.880;2024-01-16T06:21:55;96316.88;;;-0.14;67.80
78206;BME280;67480;48.920;12.880;2024-01-16T06:24:21;96316.03;;;-0.15;68.37
78206;BME280;67480;48.920;12.880;2024-01-16T06:26:46;96318.63;;;-0.15;68.04
78206;BME280;67480;48.920;12.880;2024-01-16T06:29:11;96320.41;;;-0.15;67.96
78206;BME280;67480;48.920;12.880;2024-01-16T06:31:37;96322.38;;;-0.18;68.03
78206;BME280;67480;48.920;12.880;2024-01-16T06:34:03;96323.78;;;-0.15;68.08
78206;BME280;67480;48.920;12.880;2024-01-16T06:36:28;96328.31;;;-0.17;67.58
78206;BME280;67480;48.920;12.880;2024-01-16T06:38:54;96332.03;;;-0.20;68.16
78206;BME280;67480;48.920;12.880;2024-01-16T06:41:19;96327.03;;;-0.21;68.08
78206;BME280;67480;48.920;12.880;2024-01-16T06:43:44;96331.38;;;-0.22;67.88
78206;BME280;67480;48.920;12.880;2024-01-16T06:46:10;96335.88;;;-0.24;67.93
78206;BME280;67480;48.920;12.880;2024-01-16T06:48:36;96333.31;;;-0.24;68.02
78206;BME280;67480;48.920;12.880;2024-01-16T06:51:05;96329.78;;;-0.23;67.80
78206;BME280;67480;48.920;12.880;2024-01-16T06:53:30;96327.53;;;-0.26;67.70
78206;BME280;67480;48.920;12.880;2024-01-16T06:55:55;96343.44;;;-0.22;67.23
78206;BME280;67480;48.920;12.880;2024-01-16T06:58:21;96344.59;;;-0.25;67.71
78206;BME280;67480;48.920;12.880;2024-01-16T07:00:47;96353.28;;;-0.26;67.70
78206;BME280;67480;48.920;12.880;2024-01-16T07:03:13;96353.91;;;-0.24;67.66
78206;BME280;67480;48.920;12.880;2024-01-16T07:05:39;96354.72;;;-0.23;67.33
78206;BME280;67480;48.920;12.880;2024-01-16T07:08:08;96351.50;;;-0.25;67.24
78206;BME280;67480;48.920;12.880;2024-01-16T07:10:33;96364.06;;;-0.22;67.38
78206;BME280;67480;48.920;12.880;2024-01-16T07:12:59;96362.28;;;-0.22;66.91
78206;BME280;67480;48.920;12.880;2024-01-16T07:15:25;96360.69;;;-0.23;67.36
78206;BME280;67480;48.920;12.880;2024-01-16T07:17:50;96360.69;;;-0.23;67.59
78206;BME280;67480;48.920;12.880;2024-01-16T07:20:16;96368.22;;;-0.21;67.15
78206;BME280;67480;48.920;12.880;2024-01-16T07:22:42;96359.06;;;-0.24;67.68
78206;BME280;67480;48.920;12.880;2024-01-16T07:25:08;96360.03;;;-0.25;67.13
78206;BME280;67480;48.920;12.880;2024-01-16T07:27:34;96364.19;;;-0.24;66.98
78206;BME280;67480;48.920;12.880;2024-01-16T07:30:00;96360.69;;;-0.23;67.11
78206;BME280;67480;48.920;12.880;2024-01-16T07:32:25;96363.88;;;-0.21;66.92
78206;BME280;67480;48.920;12.880;2024-01-16T07:34:50;96362.59;;;-0.25;67.24
78206;BME280;67480;48.920;12.880;2024-01-16T07:37:17;96371.94;;;-0.24;67.01
78206;BME280;67480;48.920;12.880;2024-01-16T07:39:43;96366.16;;;-0.26;66.92
78206;BME280;67480;48.920;12.880;2024-01-16T07:42:08;96373.88;;;-0.26;67.09
78206;BME280;67480;48.920;12.880;2024-01-16T07:44:33;96375.47;;;-0.25;66.60
78206;BME280;67480;48.920;12.880;2024-01-16T07:46:59;96373.72;;;-0.24;67.37
78206;BME280;67480;48.920;12.880;2024-01-16T07:49:24;96374.69;;;-0.25;67.01
78206;BME280;67480;48.920;12.880;2024-01-16T07:51:49;96371.94;;;-0.24;66.81
78206;BME280;67480;48.920;12.880;2024-01-16T07:54:15;96368.09;;;-0.28;66.99
78206;BME280;67480;48.920;12.880;2024-01-16T07:56:41;96371.31;;;-0.26;67.26
78206;BME280;67480;48.920;12.880;2024-01-16T07:59:06;96380.00;;;-0.27;67.18
78206;BME280;67480;48.920;12.880;2024-01-16T08:01:32;96375.81;;;-0.28;67.01
78206;BME280;67480;48.920;12.880;2024-01-16T08:03:57;96373.38;;;-0.29;67.35
78206;BME280;67480;48.920;12.880;2024-01-16T08:06:23;96378.38;;;-0.28;66.96
78206;BME280;67480;48.920;12.880;2024-01-16T08:08:49;96370.47;;;-0.26;66.82
78206;BME280;67480;48.920;12.880;2024-01-16T08:11:15;96364.53;;;-0.27;66.59
78206;BME280;67480;48.920;12.880;2024-01-16T08:13:40;96368.88;;;-0.27;66.65
78206;BME280;67480;48.920;12.880;2024-01-16T08:16:06;96369.06;;;-0.29;66.58
78206;BME280;67480;48.920;12.880;2024-01-16T08:18:32;96362.16;;;-0.28;66.68
78206;BME280;67480;48.920;12.880;2024-01-16T08:20:57;96369.69;;;-0.27;66.69
78206;BME280;67480;48.920;12.880;2024-01-16T08:23:23;96364.72;;;-0.28;66.61
78206;BME280;67480;48.920;12.880;2024-01-16T08:25:48;96355.22;;;-0.28;66.98
78206;BME280;67480;48.920;12.880;2024-01-16T08:28:14;96361.81;;;-0.25;66.79
78206;BME280;67480;48.920;12.880;2024-01-16T08:30:40;96366.16;;;-0.26;66.62
78206;BME280;67480;48.920;12.880;2024-01-16T08:33:05;96374.03;;;-0.27;66.73
78206;BME280;67480;48.920;12.880;2024-01-16T08:35:31;96368.09;;;-0.28;66.77
78206;BME280;67480;48.920;12.880;2024-01-16T08:37:56;96374.84;;;-0.27;66.93
78206;BME280;67480;48.920;12.880;2024-01-16T08:40:22;96384.19;;;-0.26;66.58
78206;BME280;67480;48.920;12.880;2024-01-16T08:42:47;96380.97;;;-0.28;66.76
78206;BME280;67480;48.920;12.880;2024-01-16T08:45:17;96382.22;;;-0.24;66.57
78206;BME280;67480;48.920;12.880;2024-01-16T08:47:42;96375.63;;;-0.26;66.25
78206;BME280;67480;48.920;12.880;2024-01-16T08:50:07;96368.25;;;-0.29;66.37
78206;BME280;67480;48.920;12.880;2024-01-16T08:52:34;96371.31;;;-0.26;66.17
78206;BME280;67480;48.920;12.880;2024-01-16T08:54:59;96371.31;;;-0.26;66.10
78206;BME280;67480;48.920;12.880;2024-01-16T08:57:25;96374.84;;;-0.27;66.02
78206;BME280;67480;48.920;12.880;2024-01-16T08:59:50;96376.47;;;-0.26;66.25
78206;BME280;67480;48.920;12.880;2024-01-16T09:02:15;96378.06;;;-0.25;66.34
78206;BME280;67480;48.920;12.880;2024-01-16T09:04:41;96370.66;;;-0.28;66.03
78206;BME280;67480;48.920;12.880;2024-01-16T09:07:06;96364.53;;;-0.27;65.60
78206;BME280;67480;48.920;12.880;2024-01-16T09:09:31;96367.44;;;-0.30;66.29
78206;BME280;67480;48.920;12.880;2024-01-16T09:11:57;96379.19;;;-0.27;65.75
78206;BME280;67480;48.920;12.880;2024-01-16T09:14:23;96371.31;;;-0.26;66.06
78206;BME280;67480;48.920;12.880;2024-01-16T09:16:48;96376.47;;;-0.26;65.84
78206;BME280;67480;48.920;12.880;2024-01-16T09:19:13;96366.16;;;-0.26;65.67
78206;BME280;67480;48.920;12.880;2024-01-16T09:21:39;96356.66;;;-0.25;65.69
78206;BME280;67480;48.920;12.880;2024-01-16T09:24:04;96356.81;;;-0.27;65.38
78206;BME280;67480;48.920;12.880;2024-01-16T09:26:30;96364.19;;;-0.24;65.85
78206;BME280;67480;48.920;12.880;2024-01-16T09:28:56;96365.66;;;-0.21;65.73
78206;BME280;67480;48.920;12.880;2024-01-16T09:31:22;96366.16;;;-0.26;65.59
78206;BME280;67480;48.920;12.880;2024-01-16T09:33:47;96364.19;;;-0.24;65.63
78206;BME280;67480;48.920;12.880;2024-01-16T09:36:14;96373.56;;;-0.23;65.86
78206;BME280;67480;48.920;12.880;2024-01-16T09:38:39;96376.94;;;-0.22;65.62
78206;BME280;67480;48.920;12.880;2024-01-16T09:41:04;96376.75;;;-0.21;65.75
78206;BME280;67480;48.920;12.880;2024-01-16T09:43:31;96380.63;;;-0.16;65.96
78206;BME280;67480;48.920;12.880;2024-01-16T09:46:00;96382.53;;;-0.19;65.77
78206;BME280;67480;48.920;12.880;2024-01-16T09:48:28;96383.53;;;-0.20;65.68
78206;BME280;67480;48.920;12.880;2024-01-16T09:50:54;96377.56;;;-0.20;65.93
78206;BME280;67480;48.920;12.880;2024-01-16T09:53:19;96381.75;;;-0.19;65.59
78206;BME280;67480;48.920;12.880;2024-01-16T09:55:44;96380.78;;;-0.18;65.69
78206;BME280;67480;48.920;12.880;2024-01-16T09:58:12;96378.53;;;-0.21;65.93
78206;BME280;67480;48.920;12.880;2024-01-16T10:00:41;96386.09;;;-0.20;65.45
78206;BME280;67480;48.920;12.880;2024-01-16T10:03:10;96383.53;;;-0.20;65.34
78206;BME280;67480;48.920;12.880;2024-01-16T10:05:39;96377.41;;;-0.19;65.89
78206;BME280;67480;48.920;12.880;2024-01-16T10:08:05;96376.59;;;-0.19;65.43
78206;BME280;67480;48.920;12.880;2024-01-16T10:10:31;96375.81;;;-0.20;65.77
78206;BME280;67480;48.920;12.880;2024-01-16T10:12:56;96378.03;;;-0.16;65.79
78206;BME280;67480;48.920;12.880;2024-01-16T10:15:22;96384.16;;;-0.18;66.01
78206;BME280;67480;48.920;12.880;2024-01-16T10:17:48;96377.84;;;-0.15;65.71
78206;BME280;67480;48.920;12.880;2024-01-16T10:20:13;96368.53;;;-0.16;65.52
78206;BME280;67480;48.920;12.880;2024-01-16T10:22:40;96370.78;;;-0.13;65.89
78206;BME280;67480;48.920;12.880;2024-01-16T10:25:12;96368.38;;;-0.14;65.63
78206;BME280;67480;48.920;12.880;2024-01-16T10:27:41;96366.28;;;-0.19;65.16
78206;BME280;67480;48.920;12.880;2024-01-16T10:30:07;96361.59;;;-0.15;65.30
78206;BME280;67480;48.920;12.880;2024-01-16T10:32:35;96358.09;;;-0.14;65.64
78206;BME280;67480;48.920;12.880;2024-01-16T10:35:11;96356.13;;;-0.12;65.33
78206;BME280;67480;48.920;12.880;2024-01-16T10:40:07;96354.53;;;-0.13;65.46
78206;BME280;67480;48.920;12.880;2024-01-16T10:42:33;96362.91;;;-0.11;65.61
78206;BME280;67480;48.920;12.880;2024-01-16T10:44:58;96357.75;;;-0.11;65.39
78206;BME280;67480;48.920;12.880;2024-01-16T10:47:23;96358.09;;;-0.14;64.88
78206;BME280;67480;48.920;12.880;2024-01-16T10:49:49;96364.81;;;-0.13;65.37
78206;BME280;67480;48.920;12.880;2024-01-16T10:52:14;96358.38;;;-0.09;65.36
78206;BME280;67480;48.920;12.880;2024-01-16T10:54:42;96364.50;;;-0.10;65.81
78206;BME280;67480;48.920;12.880;2024-01-16T10:57:13;96357.25;;;-0.15;65.69
78206;BME280;67480;48.920;12.880;2024-01-16T10:59:46;96362.91;;;-0.11;65.30
78206;BME280;67480;48.920;12.880;2024-01-16T11:02:14;96354.03;;;-0.09;65.32
78206;BME280;67480;48.920;12.880;2024-01-16T11:04:42;96354.66;;;-0.07;65.65
78206;BME280;67480;48.920;12.880;2024-01-16T11:07:08;96352.25;;;-0.08;65.38
78206;BME280;67480;48.920;12.880;2024-01-16T11:09:34;96359.00;;;-0.07;65.40
78206;BME280;67480;48.920;12.880;2024-01-16T11:12:00;96359.34;;;-0.10;64.90
78206;BME280;67480;48.920;12.880;2024-01-16T11:14:26;96354.66;;;-0.07;65.21
78206;BME280;67480;48.920;12.880;2024-01-16T11:16:55;96351.94;;;-0.05;65.24
78206;BME280;67480;48.920;12.880;2024-01-16T11:19:21;96356.44;;;-0.07;65.57
78206;BME280;67480;48.920;12.880;2024-01-16T11:21:47;96363.81;;;-0.04;65.45
78206;BME280;67480;48.920;12.880;2024-01-16T11:24:14;96352.09;;;-0.07;65.64
78206;BME280;67480;48.920;12.880;2024-01-16T11:26:40;96352.91;;;-0.06;65.37
78206;BME280;67480;48.920;12.880;2024-01-16T11:31:53;96357.88;;;-0.05;65.11
78206;BME280;67480;48.920;12.880;2024-01-16T11:34:54;96356.09;;;-0.04;65.44
78206;BME280;67480;48.920;12.880;2024-01-16T11:37:26;96345.97;;;-0.06;65.32
78206;BME280;67480;48.920;12.880;2024-01-16T11:42:45;96345.47;;;-0.09;65.32
78206;BME280;67480;48.920;12.880;2024-01-16T11:48:16;96325.97;;;-0.04;65.18
78206;BME280;67480;48.920;12.880;2024-01-16T11:50:42;96325.50;;;0.01;65.30
78206;BME280;67480;48.920;12.880;2024-01-16T11:53:08;96314.22;;;0.02;65.41
78206;BME280;67480;48.920;12.880;2024-01-16T11:55:35;96312.63;;;0.01;64.94
78206;BME280;67480;48.920;12.880;2024-01-16T12:01:05;96307.00;;;-0.03;64.74
78206;BME280;67480;48.920;12.880;2024-01-16T12:03:30;96311.97;;;-0.01;64.72
78206;BME280;67480;48.920;12.880;2024-01-16T12:05:59;96317.13;;;-0.01;64.97
78206;BME280;67480;48.920;12.880;2024-01-16T12:08:26;96323.91;;;-0.00;64.64
78206;BME280;67480;48.920;12.880;2024-01-16T12:10:52;96318.75;;;-0.00;64.47
78206;BME280;67480;48.920;12.880;2024-01-16T12:13:17;96314.84;;;0.04;64.57
78206;BME280;67480;48.920;12.880;2024-01-16T12:15:43;96308.75;;;0.05;64.90
78206;BME280;67480;48.920;12.880;2024-01-16T12:18:09;96306.16;;;0.05;64.92
78206;BME280;67480;48.920;12.880;2024-01-16T12:20:36;96304.53;;;0.04;65.05
78206;BME280;67480;48.920;12.880;2024-01-16T12:23:04;96298.75;;;0.02;65.07
78206;BME280;67480;48.920;12.880;2024-01-16T12:25:33;96303.41;;;0.07;64.82
78206;BME280;67480;48.920;12.880;2024-01-16T12:27:59;96304.19;;;0.07;64.59
78206;BME280;67480;48.920;12.880;2024-01-16T12:30:35;96289.88;;;0.04;64.84
78206;BME280;67480;48.920;12.880;2024-01-16T12:35:36;96286.16;;;0.07;64.43
78206;BME280;67480;48.920;12.880;2024-01-16T12:38:06;96274.09;;;0.08;64.81
78206;BME280;67480;48.920;12.880;2024-01-16T12:40:35;96271.69;;;0.06;64.83
78206;BME280;67480;48.920;12.880;2024-01-16T12:43:01;96262.03;;;0.08;64.68
78206;BME280;67480;48.920;12.880;2024-01-16T12:45:27;96265.56;;;0.07;64.69
78206;BME280;67480;48.920;12.880;2024-01-16T12:47:54;96259.47;;;0.08;64.30
78206;BME280;67480;48.920;12.880;2024-01-16T12:50:24;96252.34;;;0.10;64.79
78206;BME280;67480;48.920;12.880;2024-01-16T12:53:01;96248.00;;;0.11;63.94
78206;BME280;67480;48.920;12.880;2024-01-16T12:55:26;96241.22;;;0.10;64.18
78206;BME280;67480;48.920;12.880;2024-01-16T13:00:39;96234.16;;;0.12;64.66
78206;BME280;67480;48.920;12.880;2024-01-16T13:03:07;96237.38;;;0.14;64.60